sensor_id;sensor_type;location;lat;lon;timestamp;temperature;humidity
254;DHT22;590;48.772;8.846;2023-06-26T00:00:07;17.90;44.70
254;DHT22;590;48.772;8.846;2023-06-26T00:02:35;17.90;43.70
254;DHT22;590;48.772;8.846;2023-06-26T00:05:04;17.80;44.10
254;DHT22;590;48.772;8.846;2023-06-26T00:07:34;17.80;43.50
254;DHT22;590;48.772;8.846;2023-06-26T00:10:02;17.80;43.00
254;DHT22;590;48.772;8.846;2023-06-26T00:12:31;17.80;42.70
254;DHT22;590;48.772;8.846;2023-06-26T00:14:59;17.80;41.70
254;DHT22;590;48.772;8.846;2023-06-26T00:17:27;17.80;43.30
254;DHT22;590;48.772;8.846;2023-06-26T00:19:56;17.80;43.90
254;DHT22;590;48.772;8.846;2023-06-26T00:22:24;17.80;44.50
254;DHT22;590;48.772;8.846;2023-06-26T00:24:53;17.80;43.10
254;DHT22;590;48.772;8.846;2023-06-26T00:27:21;17.80;42.90
254;DHT22;590;48.772;8.846;2023-06-26T00:29:49;17.80;42.50
254;DHT22;590;48.772;8.846;2023-06-26T00:32:19;17.80;42.70
254;DHT22;590;48.772;8.846;2023-06-26T00:34:47;17.80;42.40
254;DHT22;590;48.772;8.846;2023-06-26T00:37:15;17.80;42.70
254;DHT22;590;48.772;8.846;2023-06-26T00:39:43;17.80;42.70
254;DHT22;590;48.772;8.846;2023-06-26T00:42:13;17.70;44.00
254;DHT22;590;48.772;8.846;2023-06-26T00:44:41;17.70;43.40
254;DHT22;590;48.772;8.846;2023-06-26T00:47:10;17.60;43.60
254;DHT22;590;48.772;8.846;2023-06-26T00:49:39;17.70;43.30
254;DHT22;590;48.772;8.846;2023-06-26T00:52:07;17.70;43.00
254;DHT22;590;48.772;8.846;2023-06-26T00:54:36;17.70;43.00
254;DHT22;590;48.772;8.846;2023-06-26T00:57:04;17.60;43.60
254;DHT22;590;48.772;8.846;2023-06-26T00:59:34;17.50;45.30
254;DHT22;590;48.772;8.846;2023-06-26T01:02:02;17.40;45.80
254;DHT22;590;48.772;8.846;2023-06-26T01:04:31;17.40;46.00
254;DHT22;590;48.772;8.846;2023-06-26T01:07:02;17.30;46.00
254;DHT22;590;48.772;8.846;2023-06-26T01:09:31;17.30;47.50
254;DHT22;590;48.772;8.846;2023-06-26T01:11:59;17.30;47.80
254;DHT22;590;48.772;8.846;2023-06-26T01:14:27;17.30;47.20
254;DHT22;590;48.772;8.846;2023-06-26T01:16:56;17.20;46.80
254;DHT22;590;48.772;8.846;2023-06-26T01:19:28;17.20;47.10
254;DHT22;590;48.772;8.846;2023-06-26T01:22:00;17.10;47.50
254;DHT22;590;48.772;8.846;2023-06-26T01:24:33;17.10;48.20
254;DHT22;590;48.772;8.846;2023-06-26T01:27:05;17.00;48.60
254;DHT22;590;48.772;8.846;2023-06-26T01:29:34;17.10;48.80
254;DHT22;590;48.772;8.846;2023-06-26T01:32:03;17.00;49.00
254;DHT22;590;48.772;8.846;2023-06-26T01:34:32;16.90;49.10
254;DHT22;590;48.772;8.846;2023-06-26T01:37:00;16.90;51.20
254;DHT22;590;48.772;8.846;2023-06-26T01:39:28;16.80;52.10
254;DHT22;590;48.772;8.846;2023-06-26T01:41:56;16.70;54.00
254;DHT22;590;48.772;8.846;2023-06-26T01:44:29;16.60;55.90
254;DHT22;590;48.772;8.846;2023-06-26T01:47:00;16.60;57.30
254;DHT22;590;48.772;8.846;2023-06-26T01:49:35;16.60;57.80
254;DHT22;590;48.772;8.846;2023-06-26T01:52:09;16.70;59.10
254;DHT22;590;48.772;8.846;2023-06-26T01:54:49;16.70;57.20
254;DHT22;590;48.772;8.846;2023-06-26T01:57:20;16.60;58.40
254;DHT22;590;48.772;8.846;2023-06-26T01:59:52;16.60;59.50
254;DHT22;590;48.772;8.846;2023-06-26T02:02:20;16.60;58.40
254;DHT22;590;48.772;8.846;2023-06-26T02:04:48;16.70;56.90
254;DHT22;590;48.772;8.846;2023-06-26T02:07:16;16.60;56.50
254;DHT22;590;48.772;8.846;2023-06-26T02:09:44;16.60;57.40
254;DHT22;590;48.772;8.846;2023-06-26T02:12:12;16.60;58.70
254;DHT22;590;48.772;8.846;2023-06-26T02:14:40;16.60;58.10
254;DHT22;590;48.772;8.846;2023-06-26T02:17:10;16.50;58.20
254;DHT22;590;48.772;8.846;2023-06-26T02:19:38;16.50;59.30
254;DHT22;590;48.772;8.846;2023-06-26T02:22:12;16.40;59.20
254;DHT22;590;48.772;8.846;2023-06-26T02:24:40;16.30;59.80
254;DHT22;590;48.772;8.846;2023-06-26T02:27:08;16.30;60.00
254;DHT22;590;48.772;8.846;2023-06-26T02:29:36;16.20;61.00
254;DHT22;590;48.772;8.846;2023-06-26T02:32:05;16.20;61.20
254;DHT22;590;48.772;8.846;2023-06-26T02:34:34;16.20;61.20
254;DHT22;590;48.772;8.846;2023-06-26T02:37:03;16.20;61.70
254;DHT22;590;48.772;8.846;2023-06-26T02:39:33;16.10;61.90
254;DHT22;590;48.772;8.846;2023-06-26T02:42:01;16.20;62.20
254;DHT22;590;48.772;8.846;2023-06-26T02:44:29;16.20;61.50
254;DHT22;590;48.772;8.846;2023-06-26T02:46:57;16.10;61.80
254;DHT22;590;48.772;8.846;2023-06-26T02:49:25;16.10;62.80
254;DHT22;590;48.772;8.846;2023-06-26T02:51:54;16.10;62.20
254;DHT22;590;48.772;8.846;2023-06-26T02:54:22;16.00;62.70
254;DHT22;590;48.772;8.846;2023-06-26T02:56:50;16.00;62.50
254;DHT22;590;48.772;8.846;2023-06-26T02:59:18;16.00;62.50
254;DHT22;590;48.772;8.846;2023-06-26T03:01:46;16.00;62.30
254;DHT22;590;48.772;8.846;2023-06-26T03:04:14;16.00;62.90
254;DHT22;590;48.772;8.846;2023-06-26T03:06:44;16.00;62.90
254;DHT22;590;48.772;8.846;2023-06-26T03:09:14;16.00;62.90
254;DHT22;590;48.772;8.846;2023-06-26T03:11:43;16.10;63.00
254;DHT22;590;48.772;8.846;2023-06-26T03:14:11;16.00;62.50
254;DHT22;590;48.772;8.846;2023-06-26T03:16:39;16.00;62.90
254;DHT22;590;48.772;8.846;2023-06-26T03:19:07;16.00;62.90
254;DHT22;590;48.772;8.846;2023-06-26T03:21:35;15.90;62.80
254;DHT22;590;48.772;8.846;2023-06-26T03:24:04;15.90;62.80
254;DHT22;590;48.772;8.846;2023-06-26T03:26:33;15.80;63.40
254;DHT22;590;48.772;8.846;2023-06-26T03:29:01;15.70;64.00
254;DHT22;590;48.772;8.846;2023-06-26T03:31:29;15.70;64.70
254;DHT22;590;48.772;8.846;2023-06-26T03:33:57;15.70;65.10
254;DHT22;590;48.772;8.846;2023-06-26T03:36:25;15.70;65.40
254;DHT22;590;48.772;8.846;2023-06-26T03:38:53;15.70;65.30
254;DHT22;590;48.772;8.846;2023-06-26T03:41:24;15.70;65.00
254;DHT22;590;48.772;8.846;2023-06-26T03:43:53;15.80;65.10
254;DHT22;590;48.772;8.846;2023-06-26T03:46:23;15.80;64.60
254;DHT22;590;48.772;8.846;2023-06-26T03:48:51;15.80;64.50
254;DHT22;590;48.772;8.846;2023-06-26T03:51:19;15.90;64.40
254;DHT22;590;48.772;8.846;2023-06-26T03:53:47;15.90;64.50
254;DHT22;590;48.772;8.846;2023-06-26T03:56:15;16.00;63.90
254;DHT22;590;48.772;8.846;2023-06-26T03:58:43;16.00;64.20
254;DHT22;590;48.772;8.846;2023-06-26T04:01:12;16.00;64.30
254;DHT22;590;48.772;8.846;2023-06-26T04:03:41;16.10;64.10
254;DHT22;590;48.772;8.846;2023-06-26T04:06:09;16.10;64.30
254;DHT22;590;48.772;8.846;2023-06-26T04:08:37;16.20;63.70
254;DHT22;590;48.772;8.846;2023-06-26T04:11:05;16.30;63.10
254;DHT22;590;48.772;8.846;2023-06-26T04:13:33;16.30;62.60
254;DHT22;590;48.772;8.846;2023-06-26T04:16:01;16.50;63.00
254;DHT22;590;48.772;8.846;2023-06-26T04:18:30;16.70;62.50
254;DHT22;590;48.772;8.846;2023-06-26T04:21:07;17.20;60.90
254;DHT22;590;48.772;8.846;2023-06-26T04:23:36;18.40;56.00
254;DHT22;590;48.772;8.846;2023-06-26T04:26:04;19.90;42.90
254;DHT22;590;48.772;8.846;2023-06-26T04:28:33;21.50;31.30
254;DHT22;590;48.772;8.846;2023-06-26T04:31:01;22.80;22.90
254;DHT22;590;48.772;8.846;2023-06-26T04:33:32;23.30;19.90
254;DHT22;590;48.772;8.846;2023-06-26T04:36:00;24.40;16.20
254;DHT22;590;48.772;8.846;2023-06-26T04:38:30;25.50;13.70
254;DHT22;590;48.772;8.846;2023-06-26T04:40:59;26.90;9.70
254;DHT22;590;48.772;8.846;2023-06-26T04:43:27;28.10;6.30
254;DHT22;590;48.772;8.846;2023-06-26T04:45:55;29.20;3.80
254;DHT22;590;48.772;8.846;2023-06-26T04:48:24;30.10;1.80
254;DHT22;590;48.772;8.846;2023-06-26T04:50:55;30.90;1.00
254;DHT22;590;48.772;8.846;2023-06-26T04:53:25;31.70;1.00
254;DHT22;590;48.772;8.846;2023-06-26T04:55:53;32.40;1.00
254;DHT22;590;48.772;8.846;2023-06-26T04:58:21;33.00;1.00
254;DHT22;590;48.772;8.846;2023-06-26T05:00:49;33.60;1.00
254;DHT22;590;48.772;8.846;2023-06-26T05:03:18;34.10;1.00
254;DHT22;590;48.772;8.846;2023-06-26T05:05:46;34.50;1.00
254;DHT22;590;48.772;8.846;2023-06-26T05:08:16;34.70;1.00
254;DHT22;590;48.772;8.846;2023-06-26T05:10:45;35.00;1.00
254;DHT22;590;48.772;8.846;2023-06-26T05:13:13;35.40;1.00
254;DHT22;590;48.772;8.846;2023-06-26T05:15:44;35.50;1.00
254;DHT22;590;48.772;8.846;2023-06-26T05:18:12;35.20;1.00
254;DHT22;590;48.772;8.846;2023-06-26T05:20:41;34.90;1.00
254;DHT22;590;48.772;8.846;2023-06-26T05:23:11;34.50;1.00
254;DHT22;590;48.772;8.846;2023-06-26T05:25:41;33.80;1.00
254;DHT22;590;48.772;8.846;2023-06-26T05:28:10;33.00;1.00
254;DHT22;590;48.772;8.846;2023-06-26T05:30:39;32.10;1.00
254;DHT22;590;48.772;8.846;2023-06-26T05:33:11;31.40;1.00
254;DHT22;590;48.772;8.846;2023-06-26T05:35:39;30.70;1.00
254;DHT22;590;48.772;8.846;2023-06-26T05:38:09;30.00;1.00
254;DHT22;590;48.772;8.846;2023-06-26T05:40:37;29.50;1.70
254;DHT22;590;48.772;8.846;2023-06-26T05:43:09;29.20;2.90
254;DHT22;590;48.772;8.846;2023-06-26T05:45:37;29.00;3.00
254;DHT22;590;48.772;8.846;2023-06-26T05:48:05;28.70;3.40
254;DHT22;590;48.772;8.846;2023-06-26T05:50:34;28.60;4.60
254;DHT22;590;48.772;8.846;2023-06-26T05:53:03;28.60;4.30
254;DHT22;590;48.772;8.846;2023-06-26T05:55:32;28.60;2.60
254;DHT22;590;48.772;8.846;2023-06-26T05:58:01;28.60;2.50
254;DHT22;590;48.772;8.846;2023-06-26T06:00:31;28.50;3.00
254;DHT22;590;48.772;8.846;2023-06-26T06:02:59;28.50;3.60
254;DHT22;590;48.772;8.846;2023-06-26T06:05:28;28.70;3.00
254;DHT22;590;48.772;8.846;2023-06-26T06:07:56;28.70;3.20
254;DHT22;590;48.772;8.846;2023-06-26T06:10:24;28.90;3.50
254;DHT22;590;48.772;8.846;2023-06-26T06:12:52;29.10;3.70
254;DHT22;590;48.772;8.846;2023-06-26T06:15:42;29.50;4.70
254;DHT22;590;48.772;8.846;2023-06-26T06:18:10;29.90;3.20
254;DHT22;590;48.772;8.846;2023-06-26T06:20:38;30.20;2.20
254;DHT22;590;48.772;8.846;2023-06-26T06:23:07;30.50;1.60
254;DHT22;590;48.772;8.846;2023-06-26T06:25:35;30.90;1.00
254;DHT22;590;48.772;8.846;2023-06-26T06:28:04;31.10;1.00
254;DHT22;590;48.772;8.846;2023-06-26T06:30:32;31.30;1.00
254;DHT22;590;48.772;8.846;2023-06-26T06:33:13;31.70;1.00
254;DHT22;590;48.772;8.846;2023-06-26T06:35:41;32.20;1.10
254;DHT22;590;48.772;8.846;2023-06-26T06:38:09;32.60;1.00
254;DHT22;590;48.772;8.846;2023-06-26T06:40:37;33.10;1.00
254;DHT22;590;48.772;8.846;2023-06-26T06:43:06;33.50;1.00
254;DHT22;590;48.772;8.846;2023-06-26T06:45:34;33.90;1.00
254;DHT22;590;48.772;8.846;2023-06-26T06:48:03;34.30;1.00
254;DHT22;590;48.772;8.846;2023-06-26T06:50:32;34.70;1.00
254;DHT22;590;48.772;8.846;2023-06-26T06:53:01;35.20;1.00
254;DHT22;590;48.772;8.846;2023-06-26T06:55:29;35.60;1.00
254;DHT22;590;48.772;8.846;2023-06-26T06:57:57;36.00;1.00
254;DHT22;590;48.772;8.846;2023-06-26T07:00:25;36.40;1.00
254;DHT22;590;48.772;8.846;2023-06-26T07:02:53;36.80;1.00
254;DHT22;590;48.772;8.846;2023-06-26T07:05:23;37.20;1.00
254;DHT22;590;48.772;8.846;2023-06-26T07:07:52;37.60;1.00
254;DHT22;590;48.772;8.846;2023-06-26T07:10:20;37.90;1.00
254;DHT22;590;48.772;8.846;2023-06-26T07:12:49;38.20;1.00
254;DHT22;590;48.772;8.846;2023-06-26T07:15:17;38.50;1.00
254;DHT22;590;48.772;8.846;2023-06-26T07:17:45;38.80;1.00
254;DHT22;590;48.772;8.846;2023-06-26T07:20:13;38.90;1.00
254;DHT22;590;48.772;8.846;2023-06-26T07:22:43;39.10;1.00
254;DHT22;590;48.772;8.846;2023-06-26T07:25:13;39.20;1.00
254;DHT22;590;48.772;8.846;2023-06-26T07:27:41;39.40;1.00
254;DHT22;590;48.772;8.846;2023-06-26T07:30:10;39.30;1.00
254;DHT22;590;48.772;8.846;2023-06-26T07:32:39;39.30;1.00
254;DHT22;590;48.772;8.846;2023-06-26T07:35:09;39.40;1.00
254;DHT22;590;48.772;8.846;2023-06-26T07:37:37;39.40;1.00
254;DHT22;590;48.772;8.846;2023-06-26T07:40:05;39.50;1.00
254;DHT22;590;48.772;8.846;2023-06-26T07:42:35;39.60;1.00
254;DHT22;590;48.772;8.846;2023-06-26T07:45:04;39.60;1.00
254;DHT22;590;48.772;8.846;2023-06-26T07:47:36;39.60;1.00
254;DHT22;590;48.772;8.846;2023-06-26T07:50:05;39.60;1.00
254;DHT22;590;48.772;8.846;2023-06-26T07:52:33;39.70;1.00
254;DHT22;590;48.772;8.846;2023-06-26T07:55:02;39.70;1.00
254;DHT22;590;48.772;8.846;2023-06-26T07:57:30;39.70;1.00
254;DHT22;590;48.772;8.846;2023-06-26T08:00:00;39.70;1.00
254;DHT22;590;48.772;8.846;2023-06-26T08:02:28;39.70;1.00
254;DHT22;590;48.772;8.846;2023-06-26T08:04:56;39.80;1.00
254;DHT22;590;48.772;8.846;2023-06-26T08:07:24;39.90;1.00
254;DHT22;590;48.772;8.846;2023-06-26T08:09:52;39.90;1.00
254;DHT22;590;48.772;8.846;2023-06-26T08:12:20;40.00;1.00
254;DHT22;590;48.772;8.846;2023-06-26T08:14:59;40.10;1.00
254;DHT22;590;48.772;8.846;2023-06-26T08:17:29;40.20;1.00
254;DHT22;590;48.772;8.846;2023-06-26T08:19:57;40.20;1.00
254;DHT22;590;48.772;8.846;2023-06-26T08:22:25;40.30;1.00
254;DHT22;590;48.772;8.846;2023-06-26T08:24:53;40.40;1.00
254;DHT22;590;48.772;8.846;2023-06-26T08:27:21;40.60;1.00
254;DHT22;590;48.772;8.846;2023-06-26T08:29:49;40.60;1.00
254;DHT22;590;48.772;8.846;2023-06-26T08:32:19;40.70;1.00
254;DHT22;590;48.772;8.846;2023-06-26T08:34:47;40.70;1.00
254;DHT22;590;48.772;8.846;2023-06-26T08:37:15;40.80;1.00
254;DHT22;590;48.772;8.846;2023-06-26T08:39:43;40.70;1.00
254;DHT22;590;48.772;8.846;2023-06-26T08:42:11;40.70;1.00
254;DHT22;590;48.772;8.846;2023-06-26T08:44:41;40.70;1.00
254;DHT22;590;48.772;8.846;2023-06-26T08:47:30;40.80;1.00
254;DHT22;590;48.772;8.846;2023-06-26T08:50:04;40.80;1.00
254;DHT22;590;48.772;8.846;2023-06-26T08:52:36;40.70;1.00
254;DHT22;590;48.772;8.846;2023-06-26T08:55:09;40.80;1.00
254;DHT22;590;48.772;8.846;2023-06-26T08:57:38;40.50;1.00
254;DHT22;590;48.772;8.846;2023-06-26T09:00:08;40.60;1.00
254;DHT22;590;48.772;8.846;2023-06-26T09:02:38;40.40;1.00
254;DHT22;590;48.772;8.846;2023-06-26T09:05:09;40.40;1.00
254;DHT22;590;48.772;8.846;2023-06-26T09:07:38;40.40;1.00
254;DHT22;590;48.772;8.846;2023-06-26T09:10:08;40.40;1.00
254;DHT22;590;48.772;8.846;2023-06-26T09:12:37;40.40;1.00
254;DHT22;590;48.772;8.846;2023-06-26T09:15:06;40.30;1.00
254;DHT22;590;48.772;8.846;2023-06-26T09:17:39;40.30;1.00
254;DHT22;590;48.772;8.846;2023-06-26T09:20:09;40.30;1.00
254;DHT22;590;48.772;8.846;2023-06-26T09:22:40;40.40;1.00
254;DHT22;590;48.772;8.846;2023-06-26T09:25:09;40.50;1.00
254;DHT22;590;48.772;8.846;2023-06-26T09:27:37;40.70;1.00
254;DHT22;590;48.772;8.846;2023-06-26T09:30:06;40.70;1.00
254;DHT22;590;48.772;8.846;2023-06-26T09:32:35;40.80;1.00
254;DHT22;590;48.772;8.846;2023-06-26T09:35:06;40.80;1.00
254;DHT22;590;48.772;8.846;2023-06-26T09:37:34;40.80;1.00
254;DHT22;590;48.772;8.846;2023-06-26T09:40:02;40.80;1.00
254;DHT22;590;48.772;8.846;2023-06-26T09:42:31;40.70;1.00
254;DHT22;590;48.772;8.846;2023-06-26T09:44:59;40.60;1.00
254;DHT22;590;48.772;8.846;2023-06-26T09:47:30;40.20;1.00
254;DHT22;590;48.772;8.846;2023-06-26T09:49:58;39.80;1.00
254;DHT22;590;48.772;8.846;2023-06-26T09:52:28;39.60;1.00
254;DHT22;590;48.772;8.846;2023-06-26T09:55:07;39.50;1.00
254;DHT22;590;48.772;8.846;2023-06-26T09:57:35;39.50;1.00
254;DHT22;590;48.772;8.846;2023-06-26T10:00:04;39.20;1.00
254;DHT22;590;48.772;8.846;2023-06-26T10:02:35;38.80;1.00
254;DHT22;590;48.772;8.846;2023-06-26T10:05:04;38.70;1.00
254;DHT22;590;48.772;8.846;2023-06-26T10:07:35;38.60;1.00
254;DHT22;590;48.772;8.846;2023-06-26T10:10:03;38.50;1.00
254;DHT22;590;48.772;8.846;2023-06-26T10:12:33;38.00;1.00
254;DHT22;590;48.772;8.846;2023-06-26T10:15:03;37.60;1.00
254;DHT22;590;48.772;8.846;2023-06-26T10:17:34;37.00;1.00
254;DHT22;590;48.772;8.846;2023-06-26T10:20:03;36.40;1.00
254;DHT22;590;48.772;8.846;2023-06-26T10:22:41;36.00;1.00
254;DHT22;590;48.772;8.846;2023-06-26T10:25:10;35.80;1.00
254;DHT22;590;48.772;8.846;2023-06-26T10:27:46;35.80;1.00
254;DHT22;590;48.772;8.846;2023-06-26T10:30:19;35.80;1.00
254;DHT22;590;48.772;8.846;2023-06-26T10:32:48;35.80;1.00
254;DHT22;590;48.772;8.846;2023-06-26T10:35:17;35.70;1.00
254;DHT22;590;48.772;8.846;2023-06-26T10:37:48;35.50;1.00
254;DHT22;590;48.772;8.846;2023-06-26T10:40:22;35.20;1.00
254;DHT22;590;48.772;8.846;2023-06-26T10:42:50;34.70;1.00
254;DHT22;590;48.772;8.846;2023-06-26T10:45:20;34.20;1.00
254;DHT22;590;48.772;8.846;2023-06-26T10:47:51;33.90;1.00
254;DHT22;590;48.772;8.846;2023-06-26T10:50:22;33.90;1.00
254;DHT22;590;48.772;8.846;2023-06-26T10:53:15;34.00;1.00
254;DHT22;590;48.772;8.846;2023-06-26T10:55:49;34.00;1.00
254;DHT22;590;48.772;8.846;2023-06-26T10:58:28;33.90;1.00
254;DHT22;590;48.772;8.846;2023-06-26T11:01:14;33.70;1.00
254;DHT22;590;48.772;8.846;2023-06-26T11:03:44;33.50;1.00
254;DHT22;590;48.772;8.846;2023-06-26T11:06:14;33.30;1.00
254;DHT22;590;48.772;8.846;2023-06-26T11:08:47;33.10;1.00
254;DHT22;590;48.772;8.846;2023-06-26T11:11:16;33.00;1.00
254;DHT22;590;48.772;8.846;2023-06-26T11:13:45;32.90;1.00
254;DHT22;590;48.772;8.846;2023-06-26T11:16:14;32.70;1.00
254;DHT22;590;48.772;8.846;2023-06-26T11:18:42;32.60;1.00
254;DHT22;590;48.772;8.846;2023-06-26T11:21:12;32.80;1.00
254;DHT22;590;48.772;8.846;2023-06-26T11:23:41;33.00;1.00
254;DHT22;590;48.772;8.846;2023-06-26T11:26:17;33.10;1.00
254;DHT22;590;48.772;8.846;2023-06-26T11:28:48;33.40;1.00
254;DHT22;590;48.772;8.846;2023-06-26T11:31:26;33.70;1.00
254;DHT22;590;48.772;8.846;2023-06-26T11:33:54;34.00;1.00
254;DHT22;590;48.772;8.846;2023-06-26T11:36:24;34.30;1.00
254;DHT22;590;48.772;8.846;2023-06-26T11:38:53;34.50;1.00
254;DHT22;590;48.772;8.846;2023-06-26T11:41:23;34.40;1.00
254;DHT22;590;48.772;8.846;2023-06-26T11:43:52;34.40;1.00
254;DHT22;590;48.772;8.846;2023-06-26T11:46:22;34.20;1.00
254;DHT22;590;48.772;8.846;2023-06-26T11:48:50;34.10;1.00
254;DHT22;590;48.772;8.846;2023-06-26T11:51:18;34.10;1.00
254;DHT22;590;48.772;8.846;2023-06-26T11:53:47;34.00;1.00
254;DHT22;590;48.772;8.846;2023-06-26T11:56:17;33.90;1.00
254;DHT22;590;48.772;8.846;2023-06-26T11:59:00;33.80;1.00
254;DHT22;590;48.772;8.846;2023-06-26T12:01:32;33.90;1.00
254;DHT22;590;48.772;8.846;2023-06-26T12:04:02;34.00;1.00
254;DHT22;590;48.772;8.846;2023-06-26T12:06:32;34.10;1.00
254;DHT22;590;48.772;8.846;2023-06-26T12:09:02;34.10;1.00
254;DHT22;590;48.772;8.846;2023-06-26T12:11:32;34.00;1.00
254;DHT22;590;48.772;8.846;2023-06-26T12:14:02;33.80;1.00
254;DHT22;590;48.772;8.846;2023-06-26T12:16:31;33.70;1.00
254;DHT22;590;48.772;8.846;2023-06-26T12:19:01;33.40;1.00
254;DHT22;590;48.772;8.846;2023-06-26T12:21:47;33.00;1.00
254;DHT22;590;48.772;8.846;2023-06-26T12:24:20;33.10;1.00
254;DHT22;590;48.772;8.846;2023-06-26T12:26:50;33.10;1.00
254;DHT22;590;48.772;8.846;2023-06-26T12:29:21;33.20;1.00
254;DHT22;590;48.772;8.846;2023-06-26T12:31:51;33.10;1.00
254;DHT22;590;48.772;8.846;2023-06-26T12:34:20;33.20;1.50
254;DHT22;590;48.772;8.846;2023-06-26T12:36:50;33.20;1.00
254;DHT22;590;48.772;8.846;2023-06-26T12:39:19;33.10;1.00
254;DHT22;590;48.772;8.846;2023-06-26T12:41:51;33.10;1.00
254;DHT22;590;48.772;8.846;2023-06-26T12:44:22;33.00;1.00
254;DHT22;590;48.772;8.846;2023-06-26T12:46:54;33.00;1.00
254;DHT22;590;48.772;8.846;2023-06-26T12:49:30;33.00;1.00
254;DHT22;590;48.772;8.846;2023-06-26T12:51:59;33.00;1.00
254;DHT22;590;48.772;8.846;2023-06-26T12:54:27;33.00;1.00
254;DHT22;590;48.772;8.846;2023-06-26T12:56:55;33.00;1.00
254;DHT22;590;48.772;8.846;2023-06-26T12:59:25;33.10;1.00
254;DHT22;590;48.772;8.846;2023-06-26T13:01:53;33.00;1.00
254;DHT22;590;48.772;8.846;2023-06-26T13:04:21;33.00;1.00
254;DHT22;590;48.772;8.846;2023-06-26T13:06:49;32.90;1.00
254;DHT22;590;48.772;8.846;2023-06-26T13:09:18;32.70;1.00
254;DHT22;590;48.772;8.846;2023-06-26T13:11:46;32.60;1.00
254;DHT22;590;48.772;8.846;2023-06-26T13:14:14;32.70;1.00
254;DHT22;590;48.772;8.846;2023-06-26T13:16:43;32.70;1.00
254;DHT22;590;48.772;8.846;2023-06-26T13:19:11;32.60;1.00
254;DHT22;590;48.772;8.846;2023-06-26T13:21:39;32.40;1.00
254;DHT22;590;48.772;8.846;2023-06-26T13:24:08;32.30;1.00
254;DHT22;590;48.772;8.846;2023-06-26T13:26:37;32.40;1.00
254;DHT22;590;48.772;8.846;2023-06-26T13:29:05;32.40;1.00
254;DHT22;590;48.772;8.846;2023-06-26T13:31:33;32.50;1.00
254;DHT22;590;48.772;8.846;2023-06-26T13:34:03;32.60;1.00
254;DHT22;590;48.772;8.846;2023-06-26T13:36:32;32.50;1.00
254;DHT22;590;48.772;8.846;2023-06-26T13:39:01;32.50;1.00
254;DHT22;590;48.772;8.846;2023-06-26T13:41:30;32.50;1.00
254;DHT22;590;48.772;8.846;2023-06-26T13:43:58;32.40;1.00
254;DHT22;590;48.772;8.846;2023-06-26T13:46:37;32.50;1.00
254;DHT22;590;48.772;8.846;2023-06-26T13:49:06;32.40;1.00
254;DHT22;590;48.772;8.846;2023-06-26T13:51:34;32.40;1.00
254;DHT22;590;48.772;8.846;2023-06-26T13:54:02;32.50;1.00
254;DHT22;590;48.772;8.846;2023-06-26T13:56:30;32.50;1.00
254;DHT22;590;48.772;8.846;2023-06-26T13:58:58;32.50;1.00
254;DHT22;590;48.772;8.846;2023-06-26T14:01:26;32.20;1.00
254;DHT22;590;48.772;8.846;2023-06-26T14:03:54;32.10;1.00
254;DHT22;590;48.772;8.846;2023-06-26T14:06:23;32.00;1.00
254;DHT22;590;48.772;8.846;2023-06-26T14:08:51;31.80;1.00
254;DHT22;590;48.772;8.846;2023-06-26T14:11:19;31.70;1.00
254;DHT22;590;48.772;8.846;2023-06-26T14:13:49;31.70;1.00
254;DHT22;590;48.772;8.846;2023-06-26T14:16:17;31.60;1.00
254;DHT22;590;48.772;8.846;2023-06-26T14:18:45;31.60;1.00
254;DHT22;590;48.772;8.846;2023-06-26T14:21:14;31.60;1.00
254;DHT22;590;48.772;8.846;2023-06-26T14:23:43;31.60;1.00
254;DHT22;590;48.772;8.846;2023-06-26T14:26:12;31.60;1.00
254;DHT22;590;48.772;8.846;2023-06-26T14:28:40;31.50;1.00
254;DHT22;590;48.772;8.846;2023-06-26T14:31:08;31.60;1.00
254;DHT22;590;48.772;8.846;2023-06-26T14:33:36;31.50;1.00
254;DHT22;590;48.772;8.846;2023-06-26T14:36:04;31.30;1.00
254;DHT22;590;48.772;8.846;2023-06-26T14:38:32;31.20;1.00
254;DHT22;590;48.772;8.846;2023-06-26T14:41:01;31.10;1.00
254;DHT22;590;48.772;8.846;2023-06-26T14:43:30;31.00;1.00
254;DHT22;590;48.772;8.846;2023-06-26T14:45:58;31.00;1.00
254;DHT22;590;48.772;8.846;2023-06-26T14:48:27;31.00;1.00
254;DHT22;590;48.772;8.846;2023-06-26T14:50:56;31.00;1.00
254;DHT22;590;48.772;8.846;2023-06-26T14:53:26;30.90;1.00
254;DHT22;590;48.772;8.846;2023-06-26T14:55:54;30.80;1.00
254;DHT22;590;48.772;8.846;2023-06-26T14:58:24;30.50;1.00
254;DHT22;590;48.772;8.846;2023-06-26T15:00:52;30.30;1.00
254;DHT22;590;48.772;8.846;2023-06-26T15:03:20;30.30;1.00
254;DHT22;590;48.772;8.846;2023-06-26T15:05:48;30.40;1.00
254;DHT22;590;48.772;8.846;2023-06-26T15:08:16;30.30;1.00
254;DHT22;590;48.772;8.846;2023-06-26T15:10:44;30.30;1.00
254;DHT22;590;48.772;8.846;2023-06-26T15:13:12;30.30;1.00
254;DHT22;590;48.772;8.846;2023-06-26T15:15:41;30.30;1.00
254;DHT22;590;48.772;8.846;2023-06-26T15:18:09;30.40;1.00
254;DHT22;590;48.772;8.846;2023-06-26T15:20:37;30.40;1.00
254;DHT22;590;48.772;8.846;2023-06-26T15:23:06;30.30;1.00
254;DHT22;590;48.772;8.846;2023-06-26T15:25:34;30.20;1.00
254;DHT22;590;48.772;8.846;2023-06-26T15:28:03;30.10;1.00
254;DHT22;590;48.772;8.846;2023-06-26T15:30:32;30.00;1.00
254;DHT22;590;48.772;8.846;2023-06-26T15:33:01;30.00;1.00
254;DHT22;590;48.772;8.846;2023-06-26T15:35:29;29.90;1.00
254;DHT22;590;48.772;8.846;2023-06-26T15:37:58;29.90;1.00
254;DHT22;590;48.772;8.846;2023-06-26T15:40:26;29.90;1.00
254;DHT22;590;48.772;8.846;2023-06-26T15:42:54;29.80;1.00
254;DHT22;590;48.772;8.846;2023-06-26T15:45:22;29.70;1.00
254;DHT22;590;48.772;8.846;2023-06-26T15:47:52;29.60;1.00
254;DHT22;590;48.772;8.846;2023-06-26T15:50:22;29.50;1.00
254;DHT22;590;48.772;8.846;2023-06-26T15:52:50;29.30;1.00
254;DHT22;590;48.772;8.846;2023-06-26T15:55:18;29.20;1.00
254;DHT22;590;48.772;8.846;2023-06-26T15:57:46;29.00;1.00
254;DHT22;590;48.772;8.846;2023-06-26T16:00:14;29.00;1.00
254;DHT22;590;48.772;8.846;2023-06-26T16:02:43;29.00;1.00
254;DHT22;590;48.772;8.846;2023-06-26T16:05:11;29.00;1.00
254;DHT22;590;48.772;8.846;2023-06-26T16:07:40;28.90;1.00
254;DHT22;590;48.772;8.846;2023-06-26T16:10:23;29.00;1.00
254;DHT22;590;48.772;8.846;2023-06-26T16:12:52;29.00;1.00
254;DHT22;590;48.772;8.846;2023-06-26T16:15:20;29.10;1.00
254;DHT22;590;48.772;8.846;2023-06-26T16:17:48;29.10;1.00
254;DHT22;590;48.772;8.846;2023-06-26T16:20:16;29.10;1.00
254;DHT22;590;48.772;8.846;2023-06-26T16:22:45;29.10;1.00
254;DHT22;590;48.772;8.846;2023-06-26T16:25:13;29.00;1.00
254;DHT22;590;48.772;8.846;2023-06-26T16:27:42;28.90;1.00
254;DHT22;590;48.772;8.846;2023-06-26T16:30:12;28.80;1.00
254;DHT22;590;48.772;8.846;2023-06-26T16:32:40;28.70;1.00
254;DHT22;590;48.772;8.846;2023-06-26T16:35:08;28.60;1.00
254;DHT22;590;48.772;8.846;2023-06-26T16:37:36;28.50;1.00
254;DHT22;590;48.772;8.846;2023-06-26T16:40:07;28.50;1.00
254;DHT22;590;48.772;8.846;2023-06-26T16:42:35;28.30;1.00
254;DHT22;590;48.772;8.846;2023-06-26T16:45:04;28.10;1.00
254;DHT22;590;48.772;8.846;2023-06-26T16:47:32;28.00;1.00
254;DHT22;590;48.772;8.846;2023-06-26T16:50:06;27.90;1.00
254;DHT22;590;48.772;8.846;2023-06-26T16:52:34;27.80;1.00
254;DHT22;590;48.772;8.846;2023-06-26T16:55:04;27.60;1.00
254;DHT22;590;48.772;8.846;2023-06-26T16:57:33;27.60;1.00
254;DHT22;590;48.772;8.846;2023-06-26T17:00:02;27.50;1.00